sensor_id;sensor_type;location;lat;lon;timestamp;pressure;altitude;pressure_sealevel;temperature;humidity
33795;BME280;51430;52.242;21.118;2023-02-12T00:02:32;101578.21;;;3.28;81.75
33795;BME280;51430;52.242;21.118;2023-02-12T00:05:19;101576.83;;;3.28;81.52
33795;BME280;51430;52.242;21.118;2023-02-12T00:08:07;101572.88;;;3.28;81.16
33795;BME280;51430;52.242;21.118;2023-02-12T00:10:57;101581.35;;;3.13;81.57
33795;BME280;51430;52.242;21.118;2023-02-12T00:13:44;101592.16;;;3.08;81.99
33795;BME280;51430;52.242;21.118;2023-02-12T00:16:30;101598.55;;;3.08;81.92
33795;BME280;51430;52.242;21.118;2023-02-12T00:19:17;101603.02;;;3.01;82.13
33795;BME280;51430;52.242;21.118;2023-02-12T00:22:04;101613.44;;;3.04;81.99
33795;BME280;51430;52.242;21.118;2023-02-12T00:24:51;101625.64;;;3.05;81.75
33795;BME280;51430;52.242;21.118;2023-02-12T00:27:38;101634.61;;;3.05;81.46
33795;BME280;51430;52.242;21.118;2023-02-12T00:30:25;101636.67;;;2.98;80.76
33795;BME280;51430;52.242;21.118;2023-02-12T00:33:11;101627.74;;;2.97;80.52
33795;BME280;51430;52.242;21.118;2023-02-12T00:35:59;101632.91;;;2.97;80.21
33795;BME280;51430;52.242;21.118;2023-02-12T00:38:50;101630.85;;;2.97;80.04
33795;BME280;51430;52.242;21.118;2023-02-12T00:41:36;101641.58;;;2.95;79.95
33795;BME280;51430;52.242;21.118;2023-02-12T00:44:23;101643.20;;;2.99;80.04
33795;BME280;51430;52.242;21.118;2023-02-12T00:47:10;101643.49;;;3.02;80.12
33795;BME280;51430;52.242;21.118;2023-02-12T00:49:57;101642.02;;;2.98;80.08
33795;BME280;51430;52.242;21.118;2023-02-12T00:52:43;101647.34;;;2.92;80.16
33795;BME280;51430;52.242;21.118;2023-02-12T00:55:33;101650.55;;;2.79;80.01
33795;BME280;51430;52.242;21.118;2023-02-12T00:58:20;101660.80;;;2.68;79.94
33795;BME280;51430;52.242;21.118;2023-02-12T01:01:07;101663.14;;;2.64;79.77
33795;BME280;51430;52.242;21.118;2023-02-12T01:03:54;101670.52;;;2.64;79.59
33795;BME280;51430;52.242;21.118;2023-02-12T01:06:40;101677.08;;;2.71;79.71
33795;BME280;51430;52.242;21.118;2023-02-12T01:09:28;101681.21;;;2.71;79.68
33795;BME280;51430;52.242;21.118;2023-02-12T01:12:15;101685.21;;;2.77;79.68
33795;BME280;51430;52.242;21.118;2023-02-12T01:20:09;101692.02;;;2.49;80.38
33795;BME280;51430;52.242;21.118;2023-02-12T01:22:56;101695.91;;;2.45;80.64
33795;BME280;51430;52.242;21.118;2023-02-12T01:25:43;101703.35;;;2.51;80.28
33795;BME280;51430;52.242;21.118;2023-02-12T01:28:30;101710.25;;;2.58;80.13
33795;BME280;51430;52.242;21.118;2023-02-12T01:31:20;101711.33;;;2.56;79.89
33795;BME280;51430;52.242;21.118;2023-02-12T01:34:09;101713.91;;;2.56;79.85
33795;BME280;51430;52.242;21.118;2023-02-12T01:36:56;101726.02;;;2.53;79.81
33795;BME280;51430;52.242;21.118;2023-02-12T01:39:50;101721.55;;;2.44;79.17
33795;BME280;51430;52.242;21.118;2023-02-12T01:42:37;101717.23;;;2.45;78.77
33795;BME280;51430;52.242;21.118;2023-02-12T01:45:45;101720.32;;;2.54;78.76
33795;BME280;51430;52.242;21.118;2023-02-12T01:48:37;101727.11;;;2.50;78.28
33795;BME280;51430;52.242;21.118;2023-02-12T01:51:33;101731.75;;;2.51;78.26
33795;BME280;51430;52.242;21.118;2023-02-12T01:54:21;101723.90;;;2.39;78.21
33795;BME280;51430;52.242;21.118;2023-02-12T01:57:13;101726.02;;;2.37;77.91
33795;BME280;51430;52.242;21.118;2023-02-12T02:00:01;101731.85;;;2.38;77.97
33795;BME280;51430;52.242;21.118;2023-02-12T02:02:52;101736.52;;;2.36;77.70
33795;BME280;51430;52.242;21.118;2023-02-12T02:05:57;101742.63;;;2.40;77.89
33795;BME280;51430;52.242;21.118;2023-02-12T02:08:45;101750.20;;;2.41;78.02
33795;BME280;51430;52.242;21.118;2023-02-12T02:11:32;101752.56;;;2.43;77.68
33795;BME280;51430;52.242;21.118;2023-02-12T02:14:38;101765.31;;;2.33;77.88
33795;BME280;51430;52.242;21.118;2023-02-12T02:19:01;101767.66;;;2.36;78.08
33795;BME280;51430;52.242;21.118;2023-02-12T02:23:26;101788.80;;;2.28;78.69
33795;BME280;51430;52.242;21.118;2023-02-12T02:32:10;101805.85;;;2.18;79.61
33795;BME280;51430;52.242;21.118;2023-02-12T02:36:26;101813.42;;;2.17;79.91
33795;BME280;51430;52.242;21.118;2023-02-12T02:44:13;101836.23;;;2.01;79.52
33795;BME280;51430;52.242;21.118;2023-02-12T02:48:41;101826.54;;;2.05;79.66
33795;BME280;51430;52.242;21.118;2023-02-12T02:52:45;101834.94;;;2.07;79.32
33795;BME280;51430;52.242;21.118;2023-02-12T02:56:45;101840.59;;;2.09;79.26
33795;BME280;51430;52.242;21.118;2023-02-12T03:00:53;101848.48;;;2.10;79.02
33795;BME280;51430;52.242;21.118;2023-02-12T03:05:24;101860.27;;;2.13;79.04
33795;BME280;51430;52.242;21.118;2023-02-12T03:08:17;101879.59;;;2.10;79.41
33795;BME280;51430;52.242;21.118;2023-02-12T03:14:54;101899.85;;;2.23;78.70
33795;BME280;51430;52.242;21.118;2023-02-12T03:19:16;101915.41;;;2.18;78.25
33795;BME280;51430;52.242;21.118;2023-02-12T03:23:38;101911.53;;;2.14;78.02
33795;BME280;51430;52.242;21.118;2023-02-12T03:26:54;101922.33;;;2.05;77.97
33795;BME280;51430;52.242;21.118;2023-02-12T03:35:31;101941.73;;;2.07;78.02
33795;BME280;51430;52.242;21.118;2023-02-12T03:38:36;101948.43;;;2.08;78.22
33795;BME280;51430;52.242;21.118;2023-02-12T03:41:31;101951.87;;;2.09;77.84
33795;BME280;51430;52.242;21.118;2023-02-12T03:44:32;101960.71;;;2.15;77.69
33795;BME280;51430;52.242;21.118;2023-02-12T03:52:05;101975.05;;;2.22;76.46
33795;BME280;51430;52.242;21.118;2023-02-12T03:56:07;101982.63;;;2.09;76.83
33795;BME280;51430;52.242;21.118;2023-02-12T04:00:10;101993.13;;;2.09;77.28
33795;BME280;51430;52.242;21.118;2023-02-12T04:04:07;101993.52;;;2.06;77.60
33795;BME280;51430;52.242;21.118;2023-02-12T04:08:10;101987.40;;;2.01;77.94
33795;BME280;51430;52.242;21.118;2023-02-12T04:23:03;101997.40;;;1.87;77.82
33795;BME280;51430;52.242;21.118;2023-02-12T04:26:14;102003.14;;;1.94;77.21
33795;BME280;51430;52.242;21.118;2023-02-12T04:32:19;102007.05;;;2.10;76.88
33795;BME280;51430;52.242;21.118;2023-02-12T04:38:07;102014.81;;;2.20;76.27
33795;BME280;51430;52.242;21.118;2023-02-12T04:40:58;102015.46;;;2.23;76.38
33795;BME280;51430;52.242;21.118;2023-02-12T04:43:45;102015.41;;;2.26;76.22
33795;BME280;51430;52.242;21.118;2023-02-12T04:53:40;102026.52;;;1.94;76.91
33795;BME280;51430;52.242;21.118;2023-02-12T04:56:27;102027.54;;;1.84;76.99
33795;BME280;51430;52.242;21.118;2023-02-12T04:59:16;102033.99;;;1.89;76.50
33795;BME280;51430;52.242;21.118;2023-02-12T05:02:02;102044.54;;;1.97;76.32
33795;BME280;51430;52.242;21.118;2023-02-12T05:04:49;102046.19;;;2.03;76.04
33795;BME280;51430;52.242;21.118;2023-02-12T05:08:04;102052.73;;;2.02;76.14
33795;BME280;51430;52.242;21.118;2023-02-12T05:11:26;102061.02;;;1.86;76.36
33795;BME280;51430;52.242;21.118;2023-02-12T05:15:24;102072.23;;;1.68;76.81
33795;BME280;51430;52.242;21.118;2023-02-12T05:19:24;102079.88;;;1.62;76.80
33795;BME280;51430;52.242;21.118;2023-02-12T05:23:19;102089.54;;;1.59;76.86
33795;BME280;51430;52.242;21.118;2023-02-12T05:27:14;102093.10;;;1.64;76.90
33795;BME280;51430;52.242;21.118;2023-02-12T05:31:16;102098.96;;;1.61;76.81
33795;BME280;51430;52.242;21.118;2023-02-12T05:34:09;102111.20;;;1.59;76.95
33795;BME280;51430;52.242;21.118;2023-02-12T05:36:57;102112.48;;;1.69;76.66
33795;BME280;51430;52.242;21.118;2023-02-12T05:39:44;102116.36;;;1.74;76.21
33795;BME280;51430;52.242;21.118;2023-02-12T05:42:30;102113.88;;;1.81;76.19
33795;BME280;51430;52.242;21.118;2023-02-12T05:45:27;102124.55;;;1.79;76.15
33795;BME280;51430;52.242;21.118;2023-02-12T05:49:22;102139.27;;;1.70;76.82
33795;BME280;51430;52.242;21.118;2023-02-12T05:53:21;102136.69;;;1.71;76.83
33795;BME280;51430;52.242;21.118;2023-02-12T05:57:16;102144.45;;;1.67;76.92
33795;BME280;51430;52.242;21.118;2023-02-12T06:01:20;102152.55;;;1.64;76.81
33795;BME280;51430;52.242;21.118;2023-02-12T06:05:37;102158.73;;;1.65;76.96
33795;BME280;51430;52.242;21.118;2023-02-12T06:19:21;102185.43;;;1.94;75.55
33795;BME280;51430;52.242;21.118;2023-02-12T06:22:09;102194.63;;;1.85;75.55
33795;BME280;51430;52.242;21.118;2023-02-12T06:24:56;102202.67;;;1.88;75.60
33795;BME280;51430;52.242;21.118;2023-02-12T06:27:43;102208.81;;;1.93;75.65
33795;BME280;51430;52.242;21.118;2023-02-12T06:32:21;102209.63;;;1.97;75.17
33795;BME280;51430;52.242;21.118;2023-02-12T06:35:09;102211.34;;;1.83;75.40
33795;BME280;51430;52.242;21.118;2023-02-12T06:37:55;102211.43;;;1.90;75.40
33795;BME280;51430;52.242;21.118;2023-02-12T06:40:42;102219.13;;;1.94;75.14
33795;BME280;51430;52.242;21.118;2023-02-12T06:43:28;102215.30;;;1.98;74.55
33795;BME280;51430;52.242;21.118;2023-02-12T06:46:16;102211.56;;;1.93;73.92
33795;BME280;51430;52.242;21.118;2023-02-12T06:49:03;102213.09;;;1.95;73.83
33795;BME280;51430;52.242;21.118;2023-02-12T06:55:20;102205.42;;;2.60;73.52
33795;BME280;51430;52.242;21.118;2023-02-12T06:58:07;102210.95;;;3.19;71.87
33795;BME280;51430;52.242;21.118;2023-02-12T07:00:54;102218.02;;;3.50;70.74
33795;BME280;51430;52.242;21.118;2023-02-12T07:03:41;102220.92;;;3.81;70.47
33795;BME280;51430;52.242;21.118;2023-02-12T07:06:29;102226.36;;;4.14;69.18
33795;BME280;51430;52.242;21.118;2023-02-12T07:09:16;102225.10;;;4.34;67.30
33795;BME280;51430;52.242;21.118;2023-02-12T07:12:03;102226.59;;;4.62;66.27
33795;BME280;51430;52.242;21.118;2023-02-12T07:14:49;102229.20;;;5.00;65.23
33795;BME280;51430;52.242;21.118;2023-02-12T07:17:36;102239.55;;;5.37;65.00
33795;BME280;51430;52.242;21.118;2023-02-12T07:20:22;102244.82;;;5.62;63.32
33795;BME280;51430;52.242;21.118;2023-02-12T07:23:10;102251.93;;;5.68;63.12
33795;BME280;51430;52.242;21.118;2023-02-12T07:25:59;102250.14;;;5.84;62.89
33795;BME280;51430;52.242;21.118;2023-02-12T07:28:47;102258.63;;;6.11;60.98
33795;BME280;51430;52.242;21.118;2023-02-12T07:31:34;102256.52;;;6.55;59.16
33795;BME280;51430;52.242;21.118;2023-02-12T07:34:23;102249.23;;;7.07;57.49
33795;BME280;51430;52.242;21.118;2023-02-12T07:37:09;102246.57;;;7.31;55.15
33795;BME280;51430;52.242;21.118;2023-02-12T07:39:56;102247.68;;;7.29;52.04
33795;BME280;51430;52.242;21.118;2023-02-12T07:42:43;102244.48;;;7.47;51.12
33795;BME280;51430;52.242;21.118;2023-02-12T07:45:29;102244.02;;;7.91;50.00
33795;BME280;51430;52.242;21.118;2023-02-12T07:48:16;102252.95;;;8.04;48.82
33795;BME280;51430;52.242;21.118;2023-02-12T07:51:22;102257.52;;;8.13;48.85
33795;BME280;51430;52.242;21.118;2023-02-12T07:54:10;102260.40;;;8.00;48.99
33795;BME280;51430;52.242;21.118;2023-02-12T07:56:56;102261.90;;;8.02;48.87
33795;BME280;51430;52.242;21.118;2023-02-12T07:59:44;102263.16;;;8.68;48.48
33795;BME280;51430;52.242;21.118;2023-02-12T08:02:30;102269.37;;;9.58;47.38
33795;BME280;51430;52.242;21.118;2023-02-12T08:05:17;102277.19;;;10.24;45.96
33795;BME280;51430;52.242;21.118;2023-02-12T08:08:04;102284.66;;;10.37;45.18
33795;BME280;51430;52.242;21.118;2023-02-12T08:12:43;102279.85;;;9.90;45.41
33795;BME280;51430;52.242;21.118;2023-02-12T08:15:30;102283.80;;;9.75;44.91
33795;BME280;51430;52.242;21.118;2023-02-12T08:18:17;102293.06;;;9.78;44.53
33795;BME280;51430;52.242;21.118;2023-02-12T08:21:05;102297.42;;;10.16;44.32
33795;BME280;51430;52.242;21.118;2023-02-12T08:23:56;102299.89;;;10.70;43.39
33795;BME280;51430;52.242;21.118;2023-02-12T08:26:43;102300.39;;;10.94;43.18
33795;BME280;51430;52.242;21.118;2023-02-12T08:29:42;102299.59;;;10.81;43.57
33795;BME280;51430;52.242;21.118;2023-02-12T08:32:31;102295.21;;;10.81;43.52
33795;BME280;51430;52.242;21.118;2023-02-12T08:35:18;102297.86;;;10.91;43.29
33795;BME280;51430;52.242;21.118;2023-02-12T08:38:06;102302.66;;;11.30;42.17
33795;BME280;51430;52.242;21.118;2023-02-12T08:40:53;102302.22;;;11.36;41.86
33795;BME280;51430;52.242;21.118;2023-02-12T08:43:40;102299.08;;;11.57;40.98
33795;BME280;51430;52.242;21.118;2023-02-12T08:46:30;102296.93;;;11.55;40.94
33795;BME280;51430;52.242;21.118;2023-02-12T08:49:23;102297.58;;;11.45;41.88
33795;BME280;51430;52.242;21.118;2023-02-12T08:52:10;102296.62;;;11.29;41.73
33795;BME280;51430;52.242;21.118;2023-02-12T08:54:57;102295.05;;;11.36;41.26
33795;BME280;51430;52.242;21.118;2023-02-12T08:57:44;102293.08;;;11.15;41.10
33795;BME280;51430;52.242;21.118;2023-02-12T09:00:30;102291.59;;;11.06;41.36
33795;BME280;51430;52.242;21.118;2023-02-12T09:03:17;102295.34;;;11.08;40.81
33795;BME280;51430;52.242;21.118;2023-02-12T09:06:06;102299.08;;;11.36;40.90
33795;BME280;51430;52.242;21.118;2023-02-12T09:08:53;102299.23;;;11.72;40.85
33795;BME280;51430;52.242;21.118;2023-02-12T09:11:40;102306.83;;;11.71;39.62
33795;BME280;51430;52.242;21.118;2023-02-12T09:14:27;102308.17;;;11.10;40.13
33795;BME280;51430;52.242;21.118;2023-02-12T09:17:14;102307.99;;;10.80;41.29
33795;BME280;51430;52.242;21.118;2023-02-12T09:20:01;102309.95;;;11.42;40.61
33795;BME280;51430;52.242;21.118;2023-02-12T09:22:47;102311.43;;;11.26;40.25
33795;BME280;51430;52.242;21.118;2023-02-12T09:25:41;102314.71;;;12.08;40.25
33795;BME280;51430;52.242;21.118;2023-02-12T09:28:29;102320.52;;;12.88;38.98
33795;BME280;51430;52.242;21.118;2023-02-12T09:31:19;102323.68;;;11.14;39.18
33795;BME280;51430;52.242;21.118;2023-02-12T09:34:08;102330.54;;;10.71;40.10
33795;BME280;51430;52.242;21.118;2023-02-12T09:36:55;102332.11;;;10.72;40.34
33795;BME280;51430;52.242;21.118;2023-02-12T09:39:41;102332.59;;;11.21;40.00
33795;BME280;51430;52.242;21.118;2023-02-12T09:46:07;102342.31;;;10.54;40.70
33795;BME280;51430;52.242;21.118;2023-02-12T09:49:13;102341.63;;;11.10;40.63
33795;BME280;51430;52.242;21.118;2023-02-12T09:52:01;102343.16;;;12.66;38.41
33795;BME280;51430;52.242;21.118;2023-02-12T09:54:53;102346.75;;;14.24;37.14
33795;BME280;51430;52.242;21.118;2023-02-12T09:57:40;102352.08;;;15.14;35.88
33795;BME280;51430;52.242;21.118;2023-02-12T10:00:29;102355.94;;;15.88;34.53
33795;BME280;51430;52.242;21.118;2023-02-12T10:03:17;102355.24;;;16.52;33.36
33795;BME280;51430;52.242;21.118;2023-02-12T10:06:06;102353.60;;;17.28;32.51
33795;BME280;51430;52.242;21.118;2023-02-12T10:11:59;102355.27;;;15.74;33.11
33795;BME280;51430;52.242;21.118;2023-02-12T10:20:51;102343.30;;;14.43;35.26
33795;BME280;51430;52.242;21.118;2023-02-12T10:23:48;102344.19;;;14.58;34.86
33795;BME280;51430;52.242;21.118;2023-02-12T10:26:46;102338.95;;;15.10;34.35
33795;BME280;51430;52.242;21.118;2023-02-12T10:29:38;102350.00;;;14.01;35.31
33795;BME280;51430;52.242;21.118;2023-02-12T10:32:33;102353.69;;;14.01;35.77
33795;BME280;51430;52.242;21.118;2023-02-12T10:35:24;102360.52;;;13.95;35.61
33795;BME280;51430;52.242;21.118;2023-02-12T10:38:25;102359.96;;;14.72;35.13
33795;BME280;51430;52.242;21.118;2023-02-12T10:41:15;102352.81;;;16.08;33.79
33795;BME280;51430;52.242;21.118;2023-02-12T10:44:02;102354.17;;;16.68;32.14
33795;BME280;51430;52.242;21.118;2023-02-12T10:46:49;102345.36;;;16.45;31.98
33795;BME280;51430;52.242;21.118;2023-02-12T10:49:36;102340.47;;;15.09;33.16
33795;BME280;51430;52.242;21.118;2023-02-12T10:55:25;102345.19;;;14.95;33.52
33795;BME280;51430;52.242;21.118;2023-02-12T10:58:18;102345.64;;;14.19;33.91
33795;BME280;51430;52.242;21.118;2023-02-12T11:01:16;102344.20;;;13.71;35.28
33795;BME280;51430;52.242;21.118;2023-02-12T11:04:20;102348.77;;;12.86;35.86
33795;BME280;51430;52.242;21.118;2023-02-12T11:07:07;102346.54;;;12.35;37.16
33795;BME280;51430;52.242;21.118;2023-02-12T11:09:56;102348.80;;;13.37;35.68
33795;BME280;51430;52.242;21.118;2023-02-12T11:12:42;102342.14;;;12.28;36.66
33795;BME280;51430;52.242;21.118;2023-02-12T11:15:45;102348.19;;;11.64;38.47
33795;BME280;51430;52.242;21.118;2023-02-12T11:18:34;102349.73;;;12.07;38.49
33795;BME280;51430;52.242;21.118;2023-02-12T11:21:22;102347.48;;;14.15;36.01
33795;BME280;51430;52.242;21.118;2023-02-12T11:30:11;102354.77;;;16.69;32.13
33795;BME280;51430;52.242;21.118;2023-02-12T11:33:35;102354.90;;;16.65;31.87
33795;BME280;51430;52.242;21.118;2023-02-12T11:36:24;102342.83;;;17.40;32.22
33795;BME280;51430;52.242;21.118;2023-02-12T11:39:34;102348.08;;;17.23;32.09
33795;BME280;51430;52.242;21.118;2023-02-12T11:42:24;102335.19;;;16.29;33.75
33795;BME280;51430;52.242;21.118;2023-02-12T11:45:20;102330.76;;;16.92;32.99
33795;BME280;51430;52.242;21.118;2023-02-12T11:48:16;102330.63;;;16.84;32.44
33795;BME280;51430;52.242;21.118;2023-02-12T11:51:26;102329.20;;;15.20;34.33
33795;BME280;51430;52.242;21.118;2023-02-12T11:54:23;102330.50;;;15.46;35.30
33795;BME280;51430;52.242;21.118;2023-02-12T11:57:50;102329.98;;;16.41;33.97
33795;BME280;51430;52.242;21.118;2023-02-12T12:43:07;102296.81;;;12.73;39.24
33795;BME280;51430;52.242;21.118;2023-02-12T12:47:03;102296.42;;;13.21;37.87
33795;BME280;51430;52.242;21.118;2023-02-12T12:54:48;102293.17;;;13.14;38.37
33795;BME280;51430;52.242;21.118;2023-02-12T13:10:56;102284.15;;;13.02;37.00
33795;BME280;51430;52.242;21.118;2023-02-12T13:15:13;102277.58;;;12.94;37.07
33795;BME280;51430;52.242;21.118;2023-02-12T13:28:12;102277.56;;;12.89;37.55
33795;BME280;51430;52.242;21.118;2023-02-12T13:33:01;102285.72;;;13.42;36.78
33795;BME280;51430;52.242;21.118;2023-02-12T13:36:48;102278.75;;;13.15;37.52
33795;BME280;51430;52.242;21.118;2023-02-12T13:40:39;102276.45;;;12.87;38.43
33795;BME280;51430;52.242;21.118;2023-02-12T14:08:35;102272.95;;;9.34;46.80
33795;BME280;51430;52.242;21.118;2023-02-12T14:12:34;102276.59;;;10.42;45.52
33795;BME280;51430;52.242;21.118;2023-02-12T14:31:35;102278.88;;;10.18;46.93
33795;BME280;51430;52.242;21.118;2023-02-12T14:37:14;102275.19;;;8.54;50.92
33795;BME280;51430;52.242;21.118;2023-02-12T14:43:34;102266.84;;;8.15;52.64
33795;BME280;51430;52.242;21.118;2023-02-12T14:49:43;102262.25;;;7.45;54.46
33795;BME280;51430;52.242;21.118;2023-02-12T14:53:58;102266.48;;;6.93;55.84
33795;BME280;51430;52.242;21.118;2023-02-12T14:58:00;102272.08;;;6.26;58.23
33795;BME280;51430;52.242;21.118;2023-02-12T15:01:59;102272.36;;;6.28;58.88
33795;BME280;51430;52.242;21.118;2023-02-12T15:04:49;102272.52;;;6.03;59.58
33795;BME280;51430;52.242;21.118;2023-02-12T15:14:42;102275.44;;;5.55;62.05
33795;BME280;51430;52.242;21.118;2023-02-12T15:17:53;102277.52;;;5.47;62.79
33795;BME280;51430;52.242;21.118;2023-02-12T15:21:51;102279.02;;;5.21;63.69
33795;BME280;51430;52.242;21.118;2023-02-12T15:24:39;102277.73;;;5.09;63.99
33795;BME280;51430;52.242;21.118;2023-02-12T15:27:26;102272.81;;;5.20;64.05
33795;BME280;51430;52.242;21.118;2023-02-12T15:30:15;102277.23;;;5.15;64.16
33795;BME280;51430;52.242;21.118;2023-02-12T15:33:23;102280.39;;;4.90;65.14
33795;BME280;51430;52.242;21.118;2023-02-12T15:56:45;102293.67;;;4.12;68.71
33795;BME280;51430;52.242;21.118;2023-02-12T15:59:33;102284.02;;;4.03;69.10
33795;BME280;51430;52.242;21.118;2023-02-12T16:02:28;102284.50;;;4.05;69.11
33795;BME280;51430;52.242;21.118;2023-02-12T16:05:21;102287.24;;;3.96;69.80
33795;BME280;51430;52.242;21.118;2023-02-12T16:09:45;102287.50;;;3.82;70.58
33795;BME280;51430;52.242;21.118;2023-02-12T16:30:30;102272.89;;;3.68;71.80
33795;BME280;51430;52.242;21.118;2023-02-12T16:33:33;102273.75;;;3.58;72.35
33795;BME280;51430;52.242;21.118;2023-02-12T16:39:05;102269.73;;;3.61;72.31
33795;BME280;51430;52.242;21.118;2023-02-12T16:41:55;102267.05;;;3.57;72.55
33795;BME280;51430;52.242;21.118;2023-02-12T16:46:05;102257.73;;;3.58;72.63
33795;BME280;51430;52.242;21.118;2023-02-12T17:04:21;102243.88;;;3.39;73.74
33795;BME280;51430;52.242;21.118;2023-02-12T17:08:22;102243.21;;;3.27;74.75
33795;BME280;51430;52.242;21.118;2023-02-12T17:12:47;102245.08;;;3.18;75.12
33795;BME280;51430;52.242;21.118;2023-02-12T17:16:45;102250.09;;;3.05;75.89
33795;BME280;51430;52.242;21.118;2023-02-12T17:26:26;102258.73;;;2.92;76.94
33795;BME280;51430;52.242;21.118;2023-02-12T17:30:06;102262.16;;;2.93;77.41
33795;BME280;51430;52.242;21.118;2023-02-12T17:32:53;102267.77;;;2.86;77.77
33795;BME280;51430;52.242;21.118;2023-02-12T17:35:40;102275.56;;;2.95;77.87
33795;BME280;51430;52.242;21.118;2023-02-12T17:38:27;102280.63;;;3.02;77.59
33795;BME280;51430;52.242;21.118;2023-02-12T17:41:14;102279.55;;;3.07;77.49
33795;BME280;51430;52.242;21.118;2023-02-12T17:55:19;102294.08;;;3.36;76.95
33795;BME280;51430;52.242;21.118;2023-02-12T17:58:35;102295.06;;;3.27;77.44
33795;BME280;51430;52.242;21.118;2023-02-12T18:01:58;102286.65;;;3.14;78.37
33795;BME280;51430;52.242;21.118;2023-02-12T18:05:31;102283.69;;;3.17;78.39
33795;BME280;51430;52.242;21.118;2023-02-12T18:20:22;102270.88;;;3.54;77.92
33795;BME280;51430;52.242;21.118;2023-02-12T18:23:24;102269.88;;;3.62;77.98
33795;BME280;51430;52.242;21.118;2023-02-12T18:43:02;102253.46;;;3.75;78.78
33795;BME280;51430;52.242;21.118;2023-02-12T18:45:48;102249.77;;;3.68;79.39
33795;BME280;51430;52.242;21.118;2023-02-12T18:48:34;102252.03;;;3.68;79.68
33795;BME280;51430;52.242;21.118;2023-02-12T18:51:22;102248.08;;;3.77;79.50
33795;BME280;51430;52.242;21.118;2023-02-12T18:54:11;102244.81;;;3.86;79.48
33795;BME280;51430;52.242;21.118;2023-02-12T18:57:23;102243.25;;;3.95;79.03
33795;BME280;51430;52.242;21.118;2023-02-12T19:00:10;102238.69;;;3.81;79.68
33795;BME280;51430;52.242;21.118;2023-02-12T19:02:57;102235.84;;;3.86;79.98
33795;BME280;51430;52.242;21.118;2023-02-12T19:06:09;102234.64;;;3.95;80.10
33795;BME280;51430;52.242;21.118;2023-02-12T19:11:19;102237.84;;;4.18;79.99
33795;BME280;51430;52.242;21.118;2023-02-12T19:25:45;102232.53;;;4.16;81.36
33795;BME280;51430;52.242;21.118;2023-02-12T19:28:47;102229.76;;;4.25;81.24
33795;BME280;51430;52.242;21.118;2023-02-12T19:32:35;102223.91;;;4.15;81.75
33795;BME280;51430;52.242;21.118;2023-02-12T19:36:01;102223.20;;;4.17;81.98
33795;BME280;51430;52.242;21.118;2023-02-12T19:39:37;102215.73;;;4.10;83.45
33795;BME280;51430;52.242;21.118;2023-02-12T19:43:37;102204.58;;;4.06;84.51
33795;BME280;51430;52.242;21.118;2023-02-12T19:47:36;102202.56;;;4.04;85.92
33795;BME280;51430;52.242;21.118;2023-02-12T20:29:52;102184.02;;;4.95;82.42
33795;BME280;51430;52.242;21.118;2023-02-12T20:32:50;102183.85;;;4.73;83.07
33795;BME280;51430;52.242;21.118;2023-02-12T20:37:09;102176.29;;;4.71;83.73
33795;BME280;51430;52.242;21.118;2023-02-12T20:40:49;102167.70;;;4.69;84.56
33795;BME280;51430;52.242;21.118;2023-02-12T20:45:15;102156.62;;;4.47;88.80
33795;BME280;51430;52.242;21.118;2023-02-12T20:48:26;102154.93;;;4.46;89.71
33795;BME280;51430;52.242;21.118;2023-02-12T20:52:22;102153.86;;;4.54;89.50
33795;BME280;51430;52.242;21.118;2023-02-12T20:56:21;102152.96;;;4.56;89.40
33795;BME280;51430;52.242;21.118;2023-02-12T21:00:20;102149.73;;;4.53;90.05
33795;BME280;51430;52.242;21.118;2023-02-12T21:03:09;102151.38;;;4.58;89.96
33795;BME280;51430;52.242;21.118;2023-02-12T21:05:56;102147.90;;;4.66;89.69
33795;BME280;51430;52.242;21.118;2023-02-12T21:08:44;102147.45;;;4.70;89.67
33795;BME280;51430;52.242;21.118;2023-02-12T21:11:30;102145.37;;;4.79;89.36
33795;BME280;51430;52.242;21.118;2023-02-12T21:14:17;102147.85;;;4.91;88.80
33795;BME280;51430;52.242;21.118;2023-02-12T21:17:36;102141.17;;;4.81;89.15
33795;BME280;51430;52.242;21.118;2023-02-12T21:21:21;102140.40;;;4.77;89.90
33795;BME280;51430;52.242;21.118;2023-02-12T21:25:14;102139.60;;;4.82;90.81
33795;BME280;51430;52.242;21.118;2023-02-12T21:29:12;102139.77;;;4.74;91.01
33795;BME280;51430;52.242;21.118;2023-02-12T21:33:09;102137.33;;;4.75;91.69
33795;BME280;51430;52.242;21.118;2023-02-12T21:43:09;102128.64;;;4.92;94.60
33795;BME280;51430;52.242;21.118;2023-02-12T21:47:05;102120.30;;;4.94;95.20
33795;BME280;51430;52.242;21.118;2023-02-12T21:51:06;102116.06;;;4.83;96.12
33795;BME280;51430;52.242;21.118;2023-02-12T21:54:41;102116.89;;;4.84;96.97
33795;BME280;51430;52.242;21.118;2023-02-12T21:58:36;102118.13;;;4.76;97.46
33795;BME280;51430;52.242;21.118;2023-02-12T22:02:36;102108.05;;;4.79;97.87
33795;BME280;51430;52.242;21.118;2023-02-12T22:06:53;102110.61;;;4.80;97.82
33795;BME280;51430;52.242;21.118;2023-02-12T22:10:09;102107.97;;;4.82;97.85
33795;BME280;51430;52.242;21.118;2023-02-12T22:28:24;102113.66;;;5.11;96.62
33795;BME280;51430;52.242;21.118;2023-02-12T22:32:39;102113.84;;;5.03;97.17
33795;BME280;51430;52.242;21.118;2023-02-12T22:36:06;102113.02;;;4.95;97.59
33795;BME280;51430;52.242;21.118;2023-02-12T22:38:54;102109.02;;;4.82;98.54
33795;BME280;51430;52.242;21.118;2023-02-12T22:42:07;102104.25;;;4.86;98.91
33795;BME280;51430;52.242;21.118;2023-02-12T22:44:54;102098.04;;;4.92;98.78
33795;BME280;51430;52.242;21.118;2023-02-12T22:47:44;102096.46;;;4.86;98.91
33795;BME280;51430;52.242;21.118;2023-02-12T22:50:31;102091.71;;;4.83;99.34
33795;BME280;51430;52.242;21.118;2023-02-12T22:53:22;102089.55;;;4.94;99.43